EGPO - Stornoway, United Kingdom
Distance from station: E 3km
Updated: Sun, 14-Jul-2024 8:20pm BST
Overcast
Overcast
 Wind from NNE
Wind: NNE 15 mph , 24 km/h
Temperature: 12°C
Dew Point: 10°C
Humidity: 88%
Barometer: 1011 hPa
Clouds: Overcast
Visibility: 6 miles , 10 km
Cloud details: Mostly Cloudy 213 m
Overcast 305 m
2024/07/14 19:20 EGPO 141920Z AUTO 03013KT 9999 BKN007/// OVC010/// 12/10 Q1011
EGPL - Benbecula Island, United Kingdom
Distance from station: SW 102km
Updated: Sun, 14-Jul-2024 8:20pm BST
Clear
Clear
 Wind from E
Wind: E 18 mph , 30 km/h
Temperature: 13°C
Dew Point: 10°C
Humidity: 82%
Barometer: 1010 hPa
Clouds: Clear
Visibility: 6 miles , 10 km
2024/07/14 19:20 EGPL 141920Z AUTO 09016KT 9999 NCD 13/10 Q1010
EGQA - Tain Range (saws, United Kingdom
Distance from station: ESE 149km
Updated: Sun, 14-Jul-2024 8:20pm BST
Overcast
Overcast
 Wind from NNE
Wind: NNE 10 mph , 17 km/h
Temperature: 13°C
Dew Point: 10°C
Humidity: 82%
Barometer: 1011 hPa
Clouds: Overcast
Visibility: 6 miles , 10 km
Cloud details: Overcast 640 m
2024/07/14 19:20 EGQA 141920Z AUTO 03009KT 9999 OVC021/// 13/10 Q1011
 
EGPE - Inverness/Dalcro, United Kingdom
Distance from station: ESE 158km
Updated: Sun, 14-Jul-2024 8:20pm BST
Mostly Cloudy
Mostly Cloudy
 Wind from NE
Wind: NE 7 mph , 11 km/h
Temperature: 14°C
Dew Point: 11°C
Humidity: 82%
Barometer: 1011 hPa
Clouds: Mostly Cloudy
Visibility: 6 miles , 10 km
Cloud details: Mostly Cloudy 640 m
2024/07/14 19:20 EGPE 141920Z 04006KT 9999 BKN021 14/11 Q1011
EGQS - Lossiemouth Raf, United Kingdom
Distance from station: ESE 188km
Updated: Sun, 14-Jul-2024 7:50pm BST
Mostly Cloudy
Mostly Cloudy
 Wind from NE
Wind: NE 3 mph , 6 km/h
Temperature: 13°C
Dew Point: 10°C
Humidity: 82%
Barometer: 1011 hPa
Clouds: Mostly Cloudy
Visibility: 6 miles , 10 km
Cloud details: Partly Cloudy 427 m
Mostly Cloudy 610 m
2024/07/14 18:50 EGQS 141850Z 04003KT 9999 SCT014 BKN020 13/10 Q1011 RMK GRN
EGPU - Tiree Island, United Kingdom
Distance from station: S 193km
Updated: Sun, 14-Jul-2024 3:20pm BST
NOT Current
Few Clouds
Few Clouds
 Wind from N
Wind: N 9 mph , 15 km/h
Temperature: 15°C
Dew Point: 12°C
Humidity: 82%
Barometer: 1011 hPa
Clouds: Few Clouds
Visibility: 6 miles , 10 km
Cloud details: Few Clouds 427 m
2024/07/14 14:20 EGPU 141420Z 01008KT 9999 FEW014 15/12 Q1011
 
EGPC - Wick, United Kingdom
Distance from station: E 195km
Updated: Sun, 14-Jul-2024 8:20pm BST
Overcast
Overcast
 Wind from N
Wind: N 7 mph , 11 km/h
Temperature: 12°C
Dew Point: 10°C
Humidity: 88%
Barometer: 1011 hPa
Clouds: Overcast
Visibility: 6 miles , 10 km
Cloud details: Overcast 335 m
2024/07/14 19:20 EGPC 141920Z AUTO 35006KT 9999 OVC011/// 12/10 Q1011
EGEO - Oban Airport, United Kingdom
Distance from station: SSE 203km
Updated: Sun, 14-Jul-2024 4:50pm BST
NOT Current
Clear
Clear
 Wind from W
Wind: W 12 mph , 19 km/h
Temperature: 18°C
Dew Point: 12°C
Humidity: 68%
Barometer: 1010 hPa
Summary: Clear
Visibility: greater than 7 miles , 10 km
2024/07/14 15:50 EGEO 141550Z 28010KT CAVOK 18/12 Q1010
EGPA - Kirkwall Airport, United Kingdom
Distance from station: ENE 218km
Updated: Sun, 14-Jul-2024 8:20pm BST
Light rain, Overcast
Light rain, Overcast
 Wind from N
Wind: N 10 mph , 17 km/h
Temperature: 12°C
Dew Point: 10°C
Humidity: 88%
Barometer: 1011 hPa
Summary: Light Rain
Clouds: Overcast
Visibility: 6 miles , 10 km
Cloud details: Mostly Cloudy 244 m
Overcast 335 m
2024/07/14 19:20 EGPA 141920Z AUTO 36009KT 9999 -RA BKN008/// OVC011/// 12/10 Q1011
 
EGPD - Aberdeen/Dyce, United Kingdom
Distance from station: ESE 271km
Updated: Sun, 14-Jul-2024 8:20pm BST
Overcast
Overcast
 Wind from NNW
Wind: NNW 12 mph , 19 km/h
Temperature: 12°C
Dew Point: 10°C
Humidity: 88%
Barometer: 1010 hPa
Clouds: Overcast
Visibility: 6 miles , 10 km
Cloud details: Overcast 396 m
2024/07/14 19:20 EGPD 141920Z AUTO 33010KT 9999 OVC013 12/10 Q1010
EGPI - Islay/Port Ellen, United Kingdom
Distance from station: S 281km
Updated: Sun, 14-Jul-2024 8:20pm BST
Clear
Clear
 Wind from calm
Wind: Calm
Temperature: 16°C
Dew Point: 12°C
Humidity: 77%
Barometer: 1010 hPa
Clouds: Clear
Visibility: 6 miles , 10 km
2024/07/14 19:20 EGPI 141920Z AUTO 00000KT 9999 NCD 16/12 Q1010
EGPN - Dundee/Riverside, United Kingdom
Distance from station: SE 281km
Updated: Sun, 14-Jul-2024 8:20pm BST
Few Clouds
Few Clouds
 Wind from ESE
Wind: ESE 6 mph , 9 km/h
Temperature: 14°C
Dew Point: 11°C
Humidity: 82%
Barometer: 1010 hPa
Clouds: Few Clouds
Visibility: 6 miles , 10 km
Cloud details: Few Clouds 914 m
2024/07/14 19:20 EGPN 141920Z 11005KT 9999 FEW030 14/11 Q1010
 
EGPF - Glasgow Airport, United Kingdom
Distance from station: SSE 286km
Updated: Sun, 14-Jul-2024 8:20pm BST
Clear
Clear
 Wind from SW
Wind: SW 14 mph , 22 km/h
Temperature: 18°C
Dew Point: 13°C
Humidity: 73%
Barometer: 1009 hPa
Clouds: Clear
Visibility: 6 miles , 10 km
2024/07/14 19:20 EGPF 141920Z AUTO 22012KT 9999 NCD 18/13 Q1009
EGQL - Leuchars Raf, United Kingdom
Distance from station: SE 293km
Updated: Sun, 14-Jul-2024 7:50pm BST
Overcast
Overcast
 Wind from ESE
Wind: ESE 9 mph , 15 km/h
Temperature: 13°C
Dew Point: 11°C
Humidity: 88%
Barometer: 1010 hPa
Clouds: Overcast
Visibility: 6 miles , 10 km
Cloud details: Overcast 549 m
2024/07/14 18:50 EGQL 141850Z 11008KT 9999 OVC018 13/11 Q1010 RMK WHT
EGPH - Edinburgh Airpor, United Kingdom
Distance from station: SE 311km
Updated: Sun, 14-Jul-2024 8:20pm BST
Partly Cloudy
Partly Cloudy
 Wind from NE
Wind: NE 9 mph , 15 km/h
Temperature: 14°C
Dew Point: 12°C
Humidity: 88%
Barometer: 1010 hPa
Clouds: Partly Cloudy
Visibility: 6 miles , 10 km
Cloud details: Partly Cloudy 701 m
2024/07/14 19:20 EGPH 141920Z 05008KT 9999 SCT023 14/12 Q1010
 
EGEC - Campbeltown, United Kingdom
Distance from station: S 312km
Updated: Fri, 12-Jul-2024 5:20pm BST
NOT Current
Few Clouds
Few Clouds
 Wind from WNW
Wind: WNW 9 mph , 15 km/h
Temperature: 17°C
Dew Point: 12°C
Humidity: 73%
Barometer: 1019 hPa
Clouds: Few Clouds
Visibility: 6 miles , 10 km
Cloud details: Few Clouds 1219 m
2024/07/12 16:20 EGEC 121620Z 30008KT 9999 FEW040 17/12 Q1019
EGPK - Prestwick(Civ/Na, United Kingdom
Distance from station: SSE 321km
Updated: Sun, 14-Jul-2024 8:20pm BST
Partly Cloudy
Partly Cloudy
 Wind from WSW
Wind: WSW 12 mph , 19 km/h
Temperature: 15°C
Dew Point: 13°C
Humidity: 88%
Barometer: 1010 hPa
Clouds: Partly Cloudy
Visibility: 6 miles , 10 km
Cloud details: Partly Cloudy 1067 m
2024/07/14 19:20 EGPK 141920Z 24010KT 9999 SCT035 15/13 Q1010
EGPB - Sumburgh (cape), United Kingdom
Distance from station: NE 343km
Updated: Sun, 14-Jul-2024 8:20pm BST
Overcast
Overcast
 Wind from NNE
Wind: NNE 13 mph , 20 km/h
Temperature: 12°C
Dew Point: 10°C
Humidity: 88%
Barometer: 1009 hPa
Clouds: Overcast
Visibility: 6 miles , 10 km
Cloud details: Overcast 183 m
2024/07/14 19:20 EGPB 141920Z AUTO 03011KT 9999 OVC006/// 12/10 Q1009

Metar display script from Saratoga-Weather.org